Air Navigation Services of Czech Republic
Airport: LKKV Updated:  01.04.2020 02:00:27  UTC
 METAR LKKV 01.04. 02:00 ...
METAR LKKV 010200Z 09001KT CAVOK M08/M11 Q1023 RMK REG QNH 1020=
 TAF LKKV 31.03. 23:00 ...
TAF LKKV 312300Z 0100/0206 VRB02KT CAVOK      TEMPO 0101/0106 2500 BR SCT003      TEMPO 0110/0112 31005KT=